Terminal Aerodrome Forecast
Issued by NWS Knoxville/Tri Cities, TN

Home | Current Version | Previous Version | Text Only | Print | Product List | Glossary On
Versions: 1 2 3 4 5 6 7 8 9 10 11 12 13 14 15
000
FTUS44 KMRX 251327 AAA
TAFCHA
TAF AMD
KCHA 251327Z 2513/2612 18003KT P6SM SCT028 BKN040
      TEMPO 2513/2515 BKN028
     FM252000 18006KT P6SM VCTS BKN050CB
     FM260200 18006KT P6SM SCT050 BKN100
     FM260900 VRB02KT P6SM SCT025 BKN035=

USA.gov is the U.S. government's official web portal to all federal, state and local government web resources and services.